首页
METAR-TAF:

METAR-TAF

机场 :

皮阿尔科国际机场

西班牙港, 特立尼达岛, 千里達及托巴哥

纬度: 10-37N, 经度: 061-21W, 海拔: 12米

当前天气观测

该预报发布于58分钟前的06:00 UTC
静风
温度 25°C
湿度 89%
气压 1012 hPa
能见度10公里或以上
少量云层高于1600英尺

METAR: TTPP 190600Z 00000KT 9999 FEW016 25/23 Q1012 NOSIG

时间: 02:58 (06:58 UTC)

预报

该预报发布于2小时和58分钟前的04:00 UTC
预报有效从19日的 06点(UTC)到 20日的 06点(UTC)
风速7节,风向
能见度10公里或以上
少量云层高于1600英尺
短暂存在
从 19日的 07点(UTC)到 19日的 11点(UTC)
能見度: 8000
散云层高于1600英尺
阵雨
成为
从 19日的 11点(UTC)到 19日的 13点(UTC)
风速15节,风向东转东南
散云层高于2200英尺
成为
从 19日的 23点(UTC)到 20日的 01点(UTC)
风速7节,风向
少量云层高于1800英尺

TAF: TTPP 190400Z 1906/2006 10007KT 9999 FEW016 TEMPO 1907/1911 8000 SHRA SCT016 BECMG 1911/1913 11015KT SCT022 BECMG 1923/2001 10007KT FEW018

超过4000个机场的气象观测和天气预报(METAR&TAF报告)。

可查询的气象台以黄色和红色小点在地图上表示。

将鼠标移到小点上方,可查看气象台名称。

然后点击查看天气观测和预报。

如需切换地图:点击带黑十字的绿色按钮放大地图;点击带横线的绿色按钮缩小地图;或者点击绿色箭头查看邻近地区的地图。


METAR-TAF: